createdAt,value
2023-04-27T00:01:09.834Z,100108.47
2023-04-27T00:03:36.602Z,100110.50
2023-04-27T00:06:05.036Z,100115.63
2023-04-27T00:08:31.649Z,100106.38
2023-04-27T00:10:58.660Z,100110.78
2023-04-27T00:13:25.320Z,100108.84
2023-04-27T00:15:52.049Z,100111.13
2023-04-27T00:18:19.032Z,100110.78
2023-04-27T00:20:45.600Z,100115.09
2023-04-27T00:23:13.498Z,100118.63
2023-04-27T00:25:40.214Z,100111.44
2023-04-27T00:28:06.757Z,100115.56
2023-04-27T00:30:33.414Z,100120.38
2023-04-27T00:32:59.992Z,100127.16
2023-04-27T00:35:26.770Z,100125.09
2023-04-27T00:37:53.847Z,100126.03
2023-04-27T00:40:21.843Z,100123.69
2023-04-27T00:42:48.369Z,100123.63
2023-04-27T00:45:15.124Z,100128.75
2023-04-27T00:47:42.549Z,100132.28
2023-04-27T00:50:10.173Z,100132.47
2023-04-27T00:52:37.457Z,100135.84
2023-04-27T00:55:05.276Z,100131.72
2023-04-27T00:57:33.946Z,100128.94
2023-04-27T01:00:00.872Z,100132.41
2023-04-27T01:02:28.050Z,100133.25
2023-04-27T01:04:55.793Z,100134.47
2023-04-27T01:07:25.149Z,100129.47
2023-04-27T01:09:52.105Z,100128.59
2023-04-27T01:12:18.644Z,100128.59
2023-04-27T01:14:46.559Z,100126.19
2023-04-27T01:17:13.259Z,100130.34
2023-04-27T01:19:39.939Z,100121.97
2023-04-27T01:22:06.536Z,100127.88
2023-04-27T01:24:34.502Z,100116.34
2023-04-27T01:27:01.054Z,100116.41
2023-04-27T01:29:27.621Z,100121.06
2023-04-27T01:31:54.453Z,100126.16
2023-04-27T01:34:21.060Z,100126.03
2023-04-27T01:36:47.601Z,100136.38
2023-04-27T01:39:14.697Z,100134.78
2023-04-27T01:41:42.843Z,100129.97
2023-04-27T01:44:09.639Z,100134.50
2023-04-27T01:46:36.312Z,100129.94
2023-04-27T01:49:03.179Z,100135.91
2023-04-27T01:51:29.851Z,100129.66
2023-04-27T01:56:40.538Z,100143.47
2023-04-27T02:01:56.372Z,100150.00
2023-04-27T02:07:07.382Z,100157.56
2023-04-27T02:09:34.056Z,100156.25
2023-04-27T02:12:00.881Z,100158.00
2023-04-27T02:17:12.856Z,100161.28
2023-04-27T02:19:39.565Z,100156.50
2023-04-27T02:22:06.151Z,100155.19
2023-04-27T02:24:32.747Z,100149.91
2023-04-27T02:26:59.320Z,100142.38
2023-04-27T02:36:46.236Z,100140.09
2023-04-27T02:39:49.994Z,100135.66
2023-04-27T02:42:54.402Z,100148.66
2023-04-27T02:45:58.554Z,100153.66
2023-04-27T02:49:02.807Z,100154.50
2023-04-27T02:55:27.968Z,100144.22
2023-04-27T02:58:32.161Z,100143.47
2023-04-27T03:01:36.025Z,100141.78
2023-04-27T03:11:23.515Z,100119.53
2023-04-27T03:21:22.945Z,100125.44
2023-04-27T03:23:50.981Z,100128.06
2023-04-27T03:26:17.941Z,100125.69
2023-04-27T03:28:44.684Z,100126.56
2023-04-27T03:31:13.212Z,100124.69
2023-04-27T03:33:41.059Z,100122.22
2023-04-27T03:36:08.892Z,100133.22
2023-04-27T03:38:35.752Z,100124.94
2023-04-27T03:41:03.861Z,100138.06
2023-04-27T03:43:30.399Z,100135.53
2023-04-27T03:45:56.997Z,100124.81
2023-04-27T03:48:23.604Z,100131.53
2023-04-27T03:50:50.129Z,100135.91
2023-04-27T03:53:16.686Z,100137.53
2023-04-27T03:55:45.223Z,100145.84
2023-04-27T03:58:13.737Z,100143.53
2023-04-27T04:00:40.509Z,100146.16
2023-04-27T04:03:07.977Z,100156.25
2023-04-27T04:05:34.831Z,100136.13
2023-04-27T04:08:01.435Z,100146.69
2023-04-27T04:10:28.290Z,100148.47
2023-04-27T04:12:54.900Z,100159.38
2023-04-27T04:15:22.973Z,100147.59
2023-04-27T04:17:49.581Z,100158.06
2023-04-27T04:20:16.177Z,100161.78
2023-04-27T04:22:42.970Z,100162.72
2023-04-27T04:25:09.898Z,100154.13
2023-04-27T04:27:36.715Z,100163.00
2023-04-27T04:30:03.928Z,100157.63
2023-04-27T04:32:32.035Z,100165.28
2023-04-27T04:34:58.727Z,100152.81
2023-04-27T04:37:25.350Z,100162.97
2023-04-27T04:39:51.935Z,100162.59
2023-04-27T04:42:18.814Z,100163.72
2023-04-27T04:44:45.383Z,100162.31
2023-04-27T04:47:11.925Z,100156.88
2023-04-27T04:49:39.894Z,100154.59
2023-04-27T04:52:06.460Z,100158.16
2023-04-27T04:54:33.149Z,100148.75
2023-04-27T04:56:59.711Z,100148.41
2023-04-27T04:59:26.340Z,100150.81
2023-04-27T05:01:52.947Z,100144.34
2023-04-27T05:04:19.803Z,100137.53
2023-04-27T05:06:47.881Z,100146.16
2023-04-27T05:09:14.760Z,100148.56
2023-04-27T05:11:41.529Z,100146.94
2023-04-27T05:14:08.183Z,100163.13
2023-04-27T05:16:34.812Z,100146.47
2023-04-27T05:19:01.499Z,100148.47
2023-04-27T05:21:28.068Z,100152.91
2023-04-27T05:23:56.012Z,100155.56
2023-04-27T05:26:22.542Z,100158.91
2023-04-27T05:28:49.138Z,100164.28
2023-04-27T05:31:15.800Z,100165.94
2023-04-27T05:33:42.413Z,100162.84
2023-04-27T05:36:09.448Z,100170.88
2023-04-27T05:38:36.302Z,100167.75
2023-04-27T05:41:04.374Z,100169.13
2023-04-27T05:43:30.921Z,100166.22
2023-04-27T05:45:57.574Z,100182.25
2023-04-27T05:48:24.393Z,100185.03
2023-04-27T05:50:59.273Z,100179.28
2023-04-27T05:53:25.812Z,100182.41
2023-04-27T05:55:52.354Z,100179.88
2023-04-27T05:58:20.382Z,100180.97
2023-04-27T06:00:46.944Z,100188.00
2023-04-27T06:03:13.830Z,100174.88
2023-04-27T06:05:40.814Z,100181.72
2023-04-27T06:08:07.468Z,100175.91
2023-04-27T06:10:34.620Z,100174.03
2023-04-27T06:13:01.435Z,100180.03
2023-04-27T06:15:29.504Z,100192.94
2023-04-27T06:17:56.251Z,100181.53
2023-04-27T06:20:23.010Z,100187.00
2023-04-27T06:22:49.669Z,100186.47
2023-04-27T06:25:16.598Z,100180.81
2023-04-27T06:27:43.277Z,100183.09
2023-04-27T06:30:10.872Z,100185.63
2023-04-27T06:32:38.869Z,100185.00
2023-04-27T06:35:06.040Z,100186.88
2023-04-27T06:37:32.838Z,100181.16
2023-04-27T06:39:59.497Z,100182.78
2023-04-27T06:42:26.162Z,100179.69
2023-04-27T06:44:53.938Z,100187.06
2023-04-27T06:47:20.596Z,100179.16
2023-04-27T06:49:49.758Z,100185.09
2023-04-27T06:52:16.838Z,100183.44
2023-04-27T06:54:43.694Z,100184.53
2023-04-27T06:57:10.319Z,100193.72
2023-04-27T06:59:36.862Z,100185.66
2023-04-27T07:02:03.524Z,100192.84
2023-04-27T07:04:30.208Z,100179.16
2023-04-27T07:07:00.218Z,100178.66
2023-04-27T07:09:27.840Z,100189.22
2023-04-27T07:11:54.690Z,100186.03
2023-04-27T07:14:21.362Z,100189.97
2023-04-27T07:16:47.946Z,100179.47
2023-04-27T07:19:14.725Z,100196.44
2023-04-27T07:21:41.569Z,100198.00
2023-04-27T07:24:09.600Z,100196.06
2023-04-27T07:26:36.149Z,100200.63
2023-04-27T07:29:11.182Z,100187.78
2023-04-27T07:31:45.991Z,100182.84
2023-04-27T07:34:12.825Z,100188.38
2023-04-27T07:36:39.359Z,100178.84
2023-04-27T07:39:05.895Z,100182.78
2023-04-27T07:41:33.821Z,100182.03
2023-04-27T07:44:00.407Z,100186.91
2023-04-27T07:46:27.045Z,100189.84
2023-04-27T07:48:53.662Z,100189.25
2023-04-27T07:51:20.341Z,100183.53
2023-04-27T07:53:47.784Z,100190.81
2023-04-27T07:56:14.500Z,100187.91
2023-04-27T07:58:43.440Z,100197.22
2023-04-27T08:01:10.018Z,100195.66
2023-04-27T08:03:36.727Z,100188.31
2023-04-27T08:06:04.134Z,100189.13
2023-04-27T08:08:30.868Z,100191.44
2023-04-27T08:10:57.551Z,100190.19
2023-04-27T08:13:25.497Z,100190.41
2023-04-27T08:15:57.010Z,100185.81
2023-04-27T08:18:23.612Z,100182.25
2023-04-27T08:20:50.216Z,100186.22
2023-04-27T08:23:16.996Z,100191.41
2023-04-27T08:25:43.705Z,100180.38
2023-04-27T08:28:10.392Z,100180.16
2023-04-27T08:30:36.981Z,100167.56
2023-04-27T08:33:05.019Z,100189.75
2023-04-27T08:35:31.609Z,100169.34
2023-04-27T08:37:58.222Z,100164.06
2023-04-27T08:40:24.938Z,100164.84
2023-04-27T08:42:56.353Z,100171.19
2023-04-27T08:45:23.601Z,100160.69
2023-04-27T08:47:50.457Z,100164.47
2023-04-27T08:50:18.768Z,100172.16
2023-04-27T08:52:45.564Z,100165.72
2023-04-27T08:55:14.981Z,100159.06
2023-04-27T08:57:58.465Z,100160.53
2023-04-27T09:00:25.790Z,100164.19
2023-04-27T09:02:53.010Z,100169.16
2023-04-27T09:05:23.200Z,100165.78
2023-04-27T09:07:57.473Z,100155.88
2023-04-27T09:10:24.136Z,100155.25
2023-04-27T09:12:58.939Z,100148.50
2023-04-27T09:15:26.013Z,100147.00
2023-04-27T09:17:56.348Z,100146.75
2023-04-27T09:20:24.929Z,100137.88
2023-04-27T09:22:53.031Z,100152.38
2023-04-27T09:25:23.653Z,100145.41
2023-04-27T09:27:50.309Z,100139.78
2023-04-27T09:30:17.621Z,100138.13
2023-04-27T09:32:50.730Z,100141.91
2023-04-27T09:35:22.284Z,100142.00
2023-04-27T09:37:51.751Z,100135.88
2023-04-27T09:40:19.116Z,100133.03
2023-04-27T09:42:46.307Z,100130.41
2023-04-27T09:45:14.018Z,100132.63
2023-04-27T09:47:41.092Z,100125.44
2023-04-27T09:50:09.258Z,100133.84
2023-04-27T09:52:35.787Z,100139.97
2023-04-27T09:55:08.883Z,100131.13
2023-04-27T09:57:40.586Z,100134.06
2023-04-27T10:00:20.451Z,100136.34
2023-04-27T10:02:59.672Z,100119.63
2023-04-27T10:05:42.621Z,100121.16
2023-04-27T10:08:11.167Z,100113.94
2023-04-27T10:10:47.772Z,100116.16
2023-04-27T10:13:21.504Z,100118.19
2023-04-27T10:15:48.245Z,100113.81
2023-04-27T10:18:26.083Z,100108.28
2023-04-27T10:20:52.666Z,100114.50
2023-04-27T10:23:23.278Z,100103.69
2023-04-27T10:25:51.223Z,100094.75
2023-04-27T10:28:18.014Z,100091.16
2023-04-27T10:30:46.428Z,100096.22
2023-04-27T10:33:16.974Z,100089.41
2023-04-27T10:35:53.306Z,100090.31
2023-04-27T10:38:21.213Z,100085.16
2023-04-27T10:40:56.699Z,100078.66
2023-04-27T10:43:26.141Z,100088.09
2023-04-27T10:45:55.433Z,100077.06
2023-04-27T10:48:22.054Z,100083.44
2023-04-27T10:50:51.187Z,100078.00
2023-04-27T10:53:18.056Z,100076.63
2023-04-27T10:55:44.655Z,100075.25
2023-04-27T10:58:12.579Z,100076.53
2023-04-27T11:00:40.988Z,100076.44
2023-04-27T11:03:13.225Z,100074.63
2023-04-27T11:05:40.612Z,100078.75
2023-04-27T11:08:08.760Z,100077.28
2023-04-27T11:10:38.371Z,100072.81
2023-04-27T11:13:09.856Z,100075.03
2023-04-27T11:15:48.513Z,100078.59
2023-04-27T11:18:15.709Z,100072.69
2023-04-27T11:20:43.545Z,100074.56
2023-04-27T11:23:10.115Z,100074.00
2023-04-27T11:25:37.264Z,100073.22
2023-04-27T11:28:04.217Z,100066.56
2023-04-27T11:30:30.988Z,100065.81
2023-04-27T11:32:58.959Z,100061.69
2023-04-27T11:35:34.988Z,100070.66
2023-04-27T11:38:02.279Z,100067.91
2023-04-27T11:40:28.974Z,100058.97
2023-04-27T11:42:58.728Z,100061.41
2023-04-27T11:45:26.767Z,100054.16
2023-04-27T11:47:53.598Z,100049.44
2023-04-27T11:50:24.295Z,100053.47
2023-04-27T11:52:51.024Z,100045.13
2023-04-27T11:55:20.960Z,100035.03
2023-04-27T11:57:47.548Z,100040.75
2023-04-27T12:00:14.882Z,100035.47
2023-04-27T12:02:43.257Z,100040.31
2023-04-27T12:05:10.514Z,100041.91
2023-04-27T12:07:38.940Z,100036.22
2023-04-27T12:10:06.698Z,100039.84
2023-04-27T12:12:33.280Z,100040.78
2023-04-27T12:14:59.808Z,100023.16
2023-04-27T12:17:26.445Z,100020.72
2023-04-27T12:19:53.037Z,100014.03
2023-04-27T12:22:20.198Z,100021.28
2023-04-27T12:24:58.528Z,100015.25
2023-04-27T12:27:25.244Z,100012.66
2023-04-27T12:29:51.928Z,100014.13
2023-04-27T12:32:21.780Z,100017.19
2023-04-27T12:34:48.304Z,100012.94
2023-04-27T12:37:14.917Z,100002.53
2023-04-27T12:39:41.498Z,100004.56
2023-04-27T12:42:09.437Z,100010.91
2023-04-27T12:44:36.202Z,100009.72
2023-04-27T12:47:02.917Z,100003.50
2023-04-27T12:49:29.794Z,100005.84
2023-04-27T12:51:56.730Z,100012.84
2023-04-27T12:54:23.460Z,100003.34
2023-04-27T12:56:50.006Z,100008.47
2023-04-27T12:59:18.085Z,100003.13
2023-04-27T13:01:44.726Z,100005.22
2023-04-27T13:04:19.152Z,100002.00
2023-04-27T13:06:46.474Z,99998.69
2023-04-27T13:09:13.114Z,99996.06
2023-04-27T13:11:39.823Z,99994.22
2023-04-27T13:14:06.405Z,99995.69
2023-04-27T13:16:34.767Z,99984.00
2023-04-27T13:19:01.417Z,99996.56
2023-04-27T13:21:28.050Z,99987.94
2023-04-27T13:23:54.724Z,99986.09
2023-04-27T13:26:21.323Z,100003.91
2023-04-27T13:28:48.105Z,99989.13
2023-04-27T13:31:15.385Z,99999.00
2023-04-27T13:33:44.266Z,99978.88
2023-04-27T13:36:12.307Z,99979.59
2023-04-27T13:38:39.378Z,99984.56
2023-04-27T13:41:06.632Z,99978.34
2023-04-27T13:43:33.343Z,99979.19
2023-04-27T13:46:01.291Z,99970.69
2023-04-27T13:48:28.506Z,99976.69
2023-04-27T13:50:56.714Z,99967.94
2023-04-27T13:53:23.706Z,99974.22
2023-04-27T13:55:50.261Z,99966.09
2023-04-27T13:58:16.802Z,99966.72
2023-04-27T14:00:43.430Z,99968.28
2023-04-27T14:03:10.278Z,99966.06
2023-04-27T14:05:37.137Z,99959.75
2023-04-27T14:08:05.599Z,99959.75
2023-04-27T14:10:32.230Z,99958.25
2023-04-27T14:12:58.903Z,99959.38
2023-04-27T14:15:25.561Z,99957.03
2023-04-27T14:17:52.137Z,99948.66
2023-04-27T14:20:18.754Z,99942.84
2023-04-27T14:22:45.389Z,99957.34
2023-04-27T14:25:13.391Z,99953.63
2023-04-27T14:27:40.349Z,99944.38
2023-04-27T14:30:08.167Z,99933.03
2023-04-27T14:32:34.785Z,99930.28
2023-04-27T14:35:01.576Z,99931.47
2023-04-27T14:37:28.181Z,99932.78
2023-04-27T14:39:54.802Z,99928.16
2023-04-27T14:42:25.350Z,99921.59
2023-04-27T14:44:51.974Z,99923.22
2023-04-27T14:47:18.814Z,99914.94
2023-04-27T14:49:45.562Z,99921.31
2023-04-27T14:52:12.116Z,99905.22
2023-04-27T14:54:38.676Z,99905.75
2023-04-27T14:57:05.224Z,99909.47
2023-04-27T14:59:33.211Z,99904.75
2023-04-27T15:01:59.878Z,99904.19
2023-04-27T15:04:26.806Z,99897.56
2023-04-27T15:06:53.887Z,99896.69
2023-04-27T15:09:20.455Z,99897.94
2023-04-27T15:11:47.117Z,99898.94
2023-04-27T15:14:13.656Z,99897.19
2023-04-27T15:16:41.461Z,99897.44
2023-04-27T15:19:08.040Z,99901.34
2023-04-27T15:21:34.617Z,99895.38
2023-04-27T15:24:01.266Z,99900.22
2023-04-27T15:26:27.825Z,99899.47
2023-04-27T15:28:54.540Z,99887.56
2023-04-27T15:31:21.175Z,99898.47
2023-04-27T15:33:49.221Z,99886.31
2023-04-27T15:36:15.775Z,99883.06
2023-04-27T15:38:42.390Z,99870.81
2023-04-27T15:41:09.321Z,99866.66
2023-04-27T15:43:35.860Z,99867.47
2023-04-27T15:46:03.479Z,99854.38
2023-04-27T15:48:30.070Z,99866.66
2023-04-27T15:50:58.045Z,99875.09
2023-04-27T15:53:24.758Z,99873.94
2023-04-27T15:55:51.325Z,99866.94
2023-04-27T15:58:17.917Z,99868.84
2023-04-27T16:00:44.533Z,99859.88
2023-04-27T16:03:11.515Z,99866.84
2023-04-27T16:05:38.379Z,99861.19
2023-04-27T16:08:06.503Z,99867.25
2023-04-27T16:10:33.438Z,99864.47
2023-04-27T16:13:02.160Z,99859.22
2023-04-27T16:15:28.696Z,99862.88
2023-04-27T16:17:55.315Z,99855.44
2023-04-27T16:20:22.023Z,99848.13
2023-04-27T16:22:49.218Z,99849.16
2023-04-27T16:25:17.880Z,99844.91
2023-04-27T16:27:44.920Z,99842.13
2023-04-27T16:30:11.886Z,99835.38
2023-04-27T16:32:38.527Z,99835.53
2023-04-27T16:35:06.561Z,99823.88
2023-04-27T16:37:33.239Z,99823.78
2023-04-27T16:40:00.100Z,99825.97
2023-04-27T16:42:28.230Z,99829.75
2023-04-27T16:44:54.882Z,99830.16
2023-04-27T16:47:21.527Z,99835.19
2023-04-27T16:49:48.321Z,99829.72
2023-04-27T16:52:17.490Z,99834.91
2023-04-27T16:54:44.295Z,99822.91
2023-04-27T16:57:10.919Z,99820.38
2023-04-27T16:59:39.106Z,99809.16
2023-04-27T17:02:20.799Z,99806.13
2023-04-27T17:04:50.164Z,99813.75
2023-04-27T17:07:16.919Z,99808.00
2023-04-27T17:09:43.861Z,99806.75
2023-04-27T17:12:10.481Z,99805.44
2023-04-27T17:14:37.201Z,99805.34
2023-04-27T17:17:05.577Z,99803.75
2023-04-27T17:19:32.167Z,99808.53
2023-04-27T17:21:58.846Z,99806.03
2023-04-27T17:24:25.463Z,99804.06
2023-04-27T17:26:52.139Z,99802.31
2023-04-27T17:29:18.705Z,99790.72
2023-04-27T17:31:45.389Z,99782.50
2023-04-27T17:34:13.407Z,99784.28
2023-04-27T17:36:40.189Z,99777.31
2023-04-27T17:39:06.912Z,99777.03
2023-04-27T17:41:35.476Z,99787.25
2023-04-27T17:44:03.407Z,99777.94
2023-04-27T17:46:30.279Z,99773.69
2023-04-27T17:48:57.328Z,99776.69
2023-04-27T17:51:25.225Z,99783.22
2023-04-27T17:53:51.884Z,99780.03
2023-04-27T17:56:18.437Z,99779.41
2023-04-27T17:58:45.045Z,99773.94
2023-04-27T18:01:11.706Z,99765.72
2023-04-27T18:03:38.577Z,99774.59
2023-04-27T18:06:05.653Z,99769.47
2023-04-27T18:08:33.583Z,99769.72
2023-04-27T18:11:00.298Z,99781.88
2023-04-27T18:13:26.913Z,99781.81
2023-04-27T18:15:53.474Z,99777.25
2023-04-27T18:18:20.063Z,99777.47
2023-04-27T18:20:46.774Z,99772.91
2023-04-27T18:23:13.381Z,99767.91
2023-04-27T18:25:41.471Z,99773.63
2023-04-27T18:28:08.013Z,99772.97
2023-04-27T18:30:34.559Z,99773.81
2023-04-27T18:33:01.360Z,99765.16
2023-04-27T18:35:28.053Z,99770.84
2023-04-27T18:37:54.577Z,99761.19
2023-04-27T18:40:22.016Z,99756.53
2023-04-27T18:42:49.975Z,99767.13
2023-04-27T18:45:16.577Z,99770.63
2023-04-27T18:47:43.621Z,99767.41
2023-04-27T18:50:10.719Z,99772.47
2023-04-27T18:52:37.274Z,99768.88
2023-04-27T18:55:04.749Z,99761.84
2023-04-27T18:57:31.312Z,99761.50
2023-04-27T18:59:59.239Z,99754.69
2023-04-27T19:02:25.946Z,99759.00
2023-04-27T19:04:57.185Z,99758.69
2023-04-27T19:11:01.569Z,99756.19
2023-04-27T19:13:30.376Z,99751.41
2023-04-27T19:16:20.264Z,99748.88
2023-04-27T19:19:10.848Z,99752.00
2023-04-27T19:22:12.618Z,99765.38
2023-04-27T19:24:41.866Z,99758.06
2023-04-27T19:27:12.979Z,99772.78
2023-04-27T19:30:02.502Z,99767.97
2023-04-27T19:35:19.284Z,99770.34
2023-04-27T19:37:46.141Z,99770.03
2023-04-27T19:40:17.928Z,99770.13
2023-04-27T19:42:44.546Z,99757.50
2023-04-27T19:48:19.973Z,99753.78
2023-04-27T19:50:46.976Z,99753.69
2023-04-27T19:53:19.615Z,99754.13
2023-04-27T19:55:46.952Z,99766.00
2023-04-27T19:58:18.468Z,99761.13
2023-04-27T20:00:51.554Z,99760.44
2023-04-27T20:03:56.461Z,99766.13
2023-04-27T20:40:33.437Z,99735.38
2023-04-27T21:10:53.516Z,99694.66
2023-04-27T21:24:15.107Z,99663.66
2023-04-27T21:34:13.081Z,99649.69
2023-04-27T21:40:45.454Z,99634.25
2023-04-27T21:43:53.811Z,99624.88
2023-04-27T22:14:30.481Z,99582.88
2023-04-27T22:41:55.724Z,99542.38
2023-04-27T22:45:06.841Z,99543.66
2023-04-27T23:12:14.876Z,99539.50
2023-04-27T23:29:41.128Z,99521.81
2023-04-27T23:42:29.405Z,99507.22
2023-04-27T23:55:44.619Z,99501.09
